sensor_id;sensor_type;location;lat;lon;timestamp;P1;durP1;ratioP1;P2;durP2;ratioP2
36241;SDS011;22283;42.748;12.732;2023-11-19T00:00:58;4.55;;;1.70;;
36241;SDS011;22283;42.748;12.732;2023-11-19T00:06:00;4.57;;;1.42;;
36241;SDS011;22283;42.748;12.732;2023-11-19T00:11:01;4.70;;;1.67;;
36241;SDS011;22283;42.748;12.732;2023-11-19T00:16:03;7.22;;;2.40;;
36241;SDS011;22283;42.748;12.732;2023-11-19T00:21:04;7.20;;;3.72;;
36241;SDS011;22283;42.748;12.732;2023-11-19T00:26:05;10.35;;;4.13;;
36241;SDS011;22283;42.748;12.732;2023-11-19T00:31:06;8.90;;;4.33;;
36241;SDS011;22283;42.748;12.732;2023-11-19T00:36:07;8.27;;;3.73;;
36241;SDS011;22283;42.748;12.732;2023-11-19T00:41:08;9.43;;;3.30;;
36241;SDS011;22283;42.748;12.732;2023-11-19T00:46:12;10.23;;;3.50;;
36241;SDS011;22283;42.748;12.732;2023-11-19T00:51:13;6.28;;;3.15;;
36241;SDS011;22283;42.748;12.732;2023-11-19T00:56:14;6.50;;;3.10;;
36241;SDS011;22283;42.748;12.732;2023-11-19T01:01:16;5.13;;;2.40;;
36241;SDS011;22283;42.748;12.732;2023-11-19T01:06:26;3.37;;;1.50;;
36241;SDS011;22283;42.748;12.732;2023-11-19T01:11:27;6.93;;;1.88;;
36241;SDS011;22283;42.748;12.732;2023-11-19T01:16:28;5.37;;;2.13;;
36241;SDS011;22283;42.748;12.732;2023-11-19T01:21:29;5.97;;;2.00;;
36241;SDS011;22283;42.748;12.732;2023-11-19T01:26:30;6.77;;;2.70;;
36241;SDS011;22283;42.748;12.732;2023-11-19T01:31:30;5.33;;;2.13;;
36241;SDS011;22283;42.748;12.732;2023-11-19T01:36:34;4.47;;;1.90;;
36241;SDS011;22283;42.748;12.732;2023-11-19T01:41:35;3.45;;;1.83;;
36241;SDS011;22283;42.748;12.732;2023-11-19T01:46:36;4.10;;;2.25;;
36241;SDS011;22283;42.748;12.732;2023-11-19T01:51:38;7.03;;;2.13;;
36241;SDS011;22283;42.748;12.732;2023-11-19T01:56:40;6.70;;;2.97;;
36241;SDS011;22283;42.748;12.732;2023-11-19T02:01:42;6.28;;;2.20;;
36241;SDS011;22283;42.748;12.732;2023-11-19T02:06:43;4.37;;;1.97;;
36241;SDS011;22283;42.748;12.732;2023-11-19T02:11:45;4.05;;;2.00;;
36241;SDS011;22283;42.748;12.732;2023-11-19T02:16:51;3.22;;;1.65;;
36241;SDS011;22283;42.748;12.732;2023-11-19T02:21:52;7.88;;;2.50;;
36241;SDS011;22283;42.748;12.732;2023-11-19T02:26:58;3.40;;;1.47;;
36241;SDS011;22283;42.748;12.732;2023-11-19T02:32:02;4.95;;;1.65;;
36241;SDS011;22283;42.748;12.732;2023-11-19T02:37:04;5.57;;;1.65;;
36241;SDS011;22283;42.748;12.732;2023-11-19T02:42:05;4.43;;;1.38;;
36241;SDS011;22283;42.748;12.732;2023-11-19T02:47:06;4.95;;;1.77;;
36241;SDS011;22283;42.748;12.732;2023-11-19T02:52:08;2.33;;;1.10;;
36241;SDS011;22283;42.748;12.732;2023-11-19T02:57:10;2.75;;;1.67;;
36241;SDS011;22283;42.748;12.732;2023-11-19T03:02:12;3.10;;;1.20;;
36241;SDS011;22283;42.748;12.732;2023-11-19T03:07:16;4.13;;;1.42;;
36241;SDS011;22283;42.748;12.732;2023-11-19T03:12:18;2.25;;;1.10;;
36241;SDS011;22283;42.748;12.732;2023-11-19T03:17:18;5.43;;;1.80;;
36241;SDS011;22283;42.748;12.732;2023-11-19T03:22:19;5.87;;;1.33;;
36241;SDS011;22283;42.748;12.732;2023-11-19T03:32:21;7.55;;;1.77;;
36241;SDS011;22283;42.748;12.732;2023-11-19T03:37:22;3.23;;;1.40;;
36241;SDS011;22283;42.748;12.732;2023-11-19T03:42:24;2.83;;;1.40;;
36241;SDS011;22283;42.748;12.732;2023-11-19T03:47:24;6.17;;;2.70;;
36241;SDS011;22283;42.748;12.732;2023-11-19T03:52:25;4.27;;;2.00;;
36241;SDS011;22283;42.748;12.732;2023-11-19T03:57:27;7.70;;;2.08;;
36241;SDS011;22283;42.748;12.732;2023-11-19T04:02:28;4.70;;;2.27;;
36241;SDS011;22283;42.748;12.732;2023-11-19T04:07:28;4.50;;;1.50;;
36241;SDS011;22283;42.748;12.732;2023-11-19T04:12:29;3.00;;;1.50;;
36241;SDS011;22283;42.748;12.732;2023-11-19T04:17:30;6.87;;;1.87;;
36241;SDS011;22283;42.748;12.732;2023-11-19T04:22:30;4.17;;;1.53;;
36241;SDS011;22283;42.748;12.732;2023-11-19T04:27:31;2.93;;;1.23;;
36241;SDS011;22283;42.748;12.732;2023-11-19T04:32:32;4.87;;;1.73;;
36241;SDS011;22283;42.748;12.732;2023-11-19T04:37:32;2.43;;;1.30;;
36241;SDS011;22283;42.748;12.732;2023-11-19T04:42:33;3.43;;;1.40;;
36241;SDS011;22283;42.748;12.732;2023-11-19T04:47:34;9.97;;;1.57;;
36241;SDS011;22283;42.748;12.732;2023-11-19T04:52:34;4.20;;;1.17;;
36241;SDS011;22283;42.748;12.732;2023-11-19T04:57:38;3.65;;;2.20;;
36241;SDS011;22283;42.748;12.732;2023-11-19T05:02:39;3.90;;;1.63;;
36241;SDS011;22283;42.748;12.732;2023-11-19T05:07:39;2.90;;;1.57;;
36241;SDS011;22283;42.748;12.732;2023-11-19T05:12:40;3.97;;;1.40;;
36241;SDS011;22283;42.748;12.732;2023-11-19T05:17:41;4.85;;;1.60;;
36241;SDS011;22283;42.748;12.732;2023-11-19T05:22:42;3.40;;;1.70;;
36241;SDS011;22283;42.748;12.732;2023-11-19T05:27:43;8.02;;;1.50;;
36241;SDS011;22283;42.748;12.732;2023-11-19T05:32:44;3.47;;;1.77;;
36241;SDS011;22283;42.748;12.732;2023-11-19T05:37:44;2.30;;;1.43;;
36241;SDS011;22283;42.748;12.732;2023-11-19T05:42:45;5.63;;;1.83;;
36241;SDS011;22283;42.748;12.732;2023-11-19T05:47:46;4.77;;;1.60;;
36241;SDS011;22283;42.748;12.732;2023-11-19T05:52:46;6.60;;;2.13;;
36241;SDS011;22283;42.748;12.732;2023-11-19T05:57:47;3.70;;;1.40;;
36241;SDS011;22283;42.748;12.732;2023-11-19T06:02:48;2.60;;;1.30;;
36241;SDS011;22283;42.748;12.732;2023-11-19T06:07:48;5.80;;;2.37;;
36241;SDS011;22283;42.748;12.732;2023-11-19T06:12:50;5.55;;;2.90;;
36241;SDS011;22283;42.748;12.732;2023-11-19T06:17:56;4.50;;;2.97;;
36241;SDS011;22283;42.748;12.732;2023-11-19T06:22:59;4.00;;;2.50;;
36241;SDS011;22283;42.748;12.732;2023-11-19T06:28:00;8.65;;;2.80;;
36241;SDS011;22283;42.748;12.732;2023-11-19T06:33:01;3.30;;;1.40;;
36241;SDS011;22283;42.748;12.732;2023-11-19T06:38:03;2.75;;;1.50;;
36241;SDS011;22283;42.748;12.732;2023-11-19T06:43:07;6.82;;;1.98;;
36241;SDS011;22283;42.748;12.732;2023-11-19T06:48:09;6.78;;;2.53;;
36241;SDS011;22283;42.748;12.732;2023-11-19T06:53:09;9.77;;;2.37;;
36241;SDS011;22283;42.748;12.732;2023-11-19T06:58:10;7.20;;;1.93;;
36241;SDS011;22283;42.748;12.732;2023-11-19T07:08:13;9.32;;;3.10;;
36241;SDS011;22283;42.748;12.732;2023-11-19T07:13:13;11.70;;;3.90;;
36241;SDS011;22283;42.748;12.732;2023-11-19T07:18:14;8.40;;;4.83;;
36241;SDS011;22283;42.748;12.732;2023-11-19T07:23:15;8.93;;;4.80;;
36241;SDS011;22283;42.748;12.732;2023-11-19T07:28:16;8.73;;;5.38;;
36241;SDS011;22283;42.748;12.732;2023-11-19T07:33:17;10.93;;;4.90;;
36241;SDS011;22283;42.748;12.732;2023-11-19T07:38:18;6.40;;;3.50;;
36241;SDS011;22283;42.748;12.732;2023-11-19T07:43:19;9.83;;;3.60;;
36241;SDS011;22283;42.748;12.732;2023-11-19T07:48:19;20.93;;;7.80;;
36241;SDS011;22283;42.748;12.732;2023-11-19T07:53:23;14.73;;;3.88;;
36241;SDS011;22283;42.748;12.732;2023-11-19T07:58:24;4.73;;;2.77;;
36241;SDS011;22283;42.748;12.732;2023-11-19T08:03:24;6.47;;;3.93;;
36241;SDS011;22283;42.748;12.732;2023-11-19T08:08:25;10.17;;;3.53;;
36241;SDS011;22283;42.748;12.732;2023-11-19T08:13:26;6.73;;;3.67;;
36241;SDS011;22283;42.748;12.732;2023-11-19T08:18:26;8.53;;;4.23;;
36241;SDS011;22283;42.748;12.732;2023-11-19T08:23:27;12.50;;;4.77;;
36241;SDS011;22283;42.748;12.732;2023-11-19T08:28:37;11.13;;;5.15;;
36241;SDS011;22283;42.748;12.732;2023-11-19T08:33:38;13.00;;;6.97;;
36241;SDS011;22283;42.748;12.732;2023-11-19T08:38:39;26.13;;;17.13;;
36241;SDS011;22283;42.748;12.732;2023-11-19T08:43:39;31.37;;;23.90;;
36241;SDS011;22283;42.748;12.732;2023-11-19T08:48:43;29.67;;;21.55;;
36241;SDS011;22283;42.748;12.732;2023-11-19T08:53:43;21.23;;;12.60;;
36241;SDS011;22283;42.748;12.732;2023-11-19T08:58:44;20.43;;;11.53;;
36241;SDS011;22283;42.748;12.732;2023-11-19T09:03:44;22.47;;;14.80;;
36241;SDS011;22283;42.748;12.732;2023-11-19T09:08:45;32.63;;;19.73;;
36241;SDS011;22283;42.748;12.732;2023-11-19T09:13:46;49.57;;;31.00;;
36241;SDS011;22283;42.748;12.732;2023-11-19T09:18:46;53.23;;;33.67;;
36241;SDS011;22283;42.748;12.732;2023-11-19T09:23:47;61.47;;;34.53;;
36241;SDS011;22283;42.748;12.732;2023-11-19T09:28:50;51.92;;;30.00;;
36241;SDS011;22283;42.748;12.732;2023-11-19T09:33:51;39.60;;;23.40;;
36241;SDS011;22283;42.748;12.732;2023-11-19T09:38:51;16.10;;;8.23;;
36241;SDS011;22283;42.748;12.732;2023-11-19T09:43:52;14.07;;;9.37;;
36241;SDS011;22283;42.748;12.732;2023-11-19T09:48:53;12.70;;;7.50;;
36241;SDS011;22283;42.748;12.732;2023-11-19T09:53:57;17.52;;;11.70;;
36241;SDS011;22283;42.748;12.732;2023-11-19T09:58:58;15.03;;;8.57;;
36241;SDS011;22283;42.748;12.732;2023-11-19T10:03:59;16.42;;;7.78;;
36241;SDS011;22283;42.748;12.732;2023-11-19T10:09:01;15.50;;;9.43;;
36241;SDS011;22283;42.748;12.732;2023-11-19T10:14:05;11.23;;;7.38;;
36241;SDS011;22283;42.748;12.732;2023-11-19T10:19:05;12.33;;;6.57;;
36241;SDS011;22283;42.748;12.732;2023-11-19T10:24:06;13.40;;;7.90;;
36241;SDS011;22283;42.748;12.732;2023-11-19T10:29:07;19.10;;;8.47;;
36241;SDS011;22283;42.748;12.732;2023-11-19T10:34:24;11.95;;;6.60;;
36241;SDS011;22283;42.748;12.732;2023-11-19T10:39:33;11.88;;;2.58;;
36241;SDS011;22283;42.748;12.732;2023-11-19T10:44:56;6.05;;;1.63;;
36241;SDS011;22283;42.748;12.732;2023-11-19T10:49:57;4.07;;;1.50;;
36241;SDS011;22283;42.748;12.732;2023-11-19T10:54:58;5.80;;;2.33;;
36241;SDS011;22283;42.748;12.732;2023-11-19T11:00:02;6.60;;;2.67;;
36241;SDS011;22283;42.748;12.732;2023-11-19T11:05:11;7.95;;;2.17;;
36241;SDS011;22283;42.748;12.732;2023-11-19T11:10:14;5.43;;;2.42;;
36241;SDS011;22283;42.748;12.732;2023-11-19T11:15:16;6.78;;;2.80;;
36241;SDS011;22283;42.748;12.732;2023-11-19T11:20:19;6.78;;;2.13;;
36241;SDS011;22283;42.748;12.732;2023-11-19T11:25:41;9.80;;;1.90;;
36241;SDS011;22283;42.748;12.732;2023-11-19T11:31:10;6.38;;;2.10;;
36241;SDS011;22283;42.748;12.732;2023-11-19T11:36:27;5.68;;;2.17;;
36241;SDS011;22283;42.748;12.732;2023-11-19T11:41:31;7.53;;;2.05;;
36241;SDS011;22283;42.748;12.732;2023-11-19T11:57:02;7.18;;;4.28;;
36241;SDS011;22283;42.748;12.732;2023-11-19T12:02:03;6.72;;;3.33;;
36241;SDS011;22283;42.748;12.732;2023-11-19T12:07:05;7.35;;;3.70;;
36241;SDS011;22283;42.748;12.732;2023-11-19T12:12:20;10.10;;;3.00;;
36241;SDS011;22283;42.748;12.732;2023-11-19T12:22:43;11.70;;;6.13;;
36241;SDS011;22283;42.748;12.732;2023-11-19T12:27:46;7.30;;;2.15;;
36241;SDS011;22283;42.748;12.732;2023-11-19T12:32:48;6.22;;;2.35;;
36241;SDS011;22283;42.748;12.732;2023-11-19T12:42:54;9.25;;;2.88;;
36241;SDS011;22283;42.748;12.732;2023-11-19T12:48:08;8.65;;;4.13;;
36241;SDS011;22283;42.748;12.732;2023-11-19T12:53:11;10.82;;;2.30;;
36241;SDS011;22283;42.748;12.732;2023-11-19T12:58:54;10.13;;;3.10;;
36241;SDS011;22283;42.748;12.732;2023-11-19T13:03:36;6.32;;;2.20;;
36241;SDS011;22283;42.748;12.732;2023-11-19T13:08:43;5.35;;;2.05;;
36241;SDS011;22283;42.748;12.732;2023-11-19T13:13:54;17.00;;;3.22;;
36241;SDS011;22283;42.748;12.732;2023-11-19T13:18:55;9.00;;;2.90;;
36241;SDS011;22283;42.748;12.732;2023-11-19T13:23:57;6.78;;;2.72;;
36241;SDS011;22283;42.748;12.732;2023-11-19T13:28:58;6.40;;;2.22;;
36241;SDS011;22283;42.748;12.732;2023-11-19T13:33:58;5.43;;;2.60;;
36241;SDS011;22283;42.748;12.732;2023-11-19T13:38:59;5.47;;;2.53;;
36241;SDS011;22283;42.748;12.732;2023-11-19T13:44:00;13.55;;;4.25;;
36241;SDS011;22283;42.748;12.732;2023-11-19T13:49:01;8.88;;;3.40;;
36241;SDS011;22283;42.748;12.732;2023-11-19T13:54:02;14.03;;;6.23;;
36241;SDS011;22283;42.748;12.732;2023-11-19T13:59:02;10.23;;;4.83;;
36241;SDS011;22283;42.748;12.732;2023-11-19T14:04:03;6.80;;;3.57;;
36241;SDS011;22283;42.748;12.732;2023-11-19T14:09:06;14.77;;;8.07;;
36241;SDS011;22283;42.748;12.732;2023-11-19T14:14:07;12.57;;;6.43;;
36241;SDS011;22283;42.748;12.732;2023-11-19T14:19:08;14.20;;;4.20;;
36241;SDS011;22283;42.748;12.732;2023-11-19T14:24:09;13.40;;;5.57;;
36241;SDS011;22283;42.748;12.732;2023-11-19T14:29:09;17.90;;;7.53;;
36241;SDS011;22283;42.748;12.732;2023-11-19T14:34:10;14.02;;;7.38;;
36241;SDS011;22283;42.748;12.732;2023-11-19T14:39:11;15.13;;;7.90;;
36241;SDS011;22283;42.748;12.732;2023-11-19T14:44:12;14.33;;;7.77;;
36241;SDS011;22283;42.748;12.732;2023-11-19T14:49:12;15.70;;;9.02;;
36241;SDS011;22283;42.748;12.732;2023-11-19T14:54:14;15.00;;;6.68;;
36241;SDS011;22283;42.748;12.732;2023-11-19T14:59:16;11.60;;;4.60;;
36241;SDS011;22283;42.748;12.732;2023-11-19T15:04:18;17.33;;;5.72;;
36241;SDS011;22283;42.748;12.732;2023-11-19T15:09:19;12.73;;;4.80;;
36241;SDS011;22283;42.748;12.732;2023-11-19T15:14:21;20.70;;;11.55;;
36241;SDS011;22283;42.748;12.732;2023-11-19T15:19:21;18.97;;;8.60;;
36241;SDS011;22283;42.748;12.732;2023-11-19T15:24:22;9.97;;;4.63;;
36241;SDS011;22283;42.748;12.732;2023-11-19T15:29:23;8.87;;;2.93;;
36241;SDS011;22283;42.748;12.732;2023-11-19T15:34:23;8.53;;;2.90;;
36241;SDS011;22283;42.748;12.732;2023-11-19T15:44:27;9.60;;;5.33;;
36241;SDS011;22283;42.748;12.732;2023-11-19T15:49:29;29.75;;;19.10;;
36241;SDS011;22283;42.748;12.732;2023-11-19T15:54:29;11.93;;;2.60;;
36241;SDS011;22283;42.748;12.732;2023-11-19T15:59:30;11.93;;;3.10;;
36241;SDS011;22283;42.748;12.732;2023-11-19T16:04:31;9.57;;;3.97;;
36241;SDS011;22283;42.748;12.732;2023-11-19T16:09:32;13.20;;;4.90;;
36241;SDS011;22283;42.748;12.732;2023-11-19T16:14:33;12.10;;;3.35;;
36241;SDS011;22283;42.748;12.732;2023-11-19T16:19:34;10.97;;;3.40;;
36241;SDS011;22283;42.748;12.732;2023-11-19T16:24:38;22.02;;;9.80;;
36241;SDS011;22283;42.748;12.732;2023-11-19T16:29:38;27.63;;;13.07;;
36241;SDS011;22283;42.748;12.732;2023-11-19T16:34:39;22.00;;;7.93;;
36241;SDS011;22283;42.748;12.732;2023-11-19T16:39:43;11.32;;;5.40;;
36241;SDS011;22283;42.748;12.732;2023-11-19T16:49:45;11.10;;;5.30;;
36241;SDS011;22283;42.748;12.732;2023-11-19T16:54:45;13.00;;;4.87;;
36241;SDS011;22283;42.748;12.732;2023-11-19T16:59:46;8.43;;;4.20;;
36241;SDS011;22283;42.748;12.732;2023-11-19T17:04:48;11.05;;;3.35;;
36241;SDS011;22283;42.748;12.732;2023-11-19T17:09:49;10.40;;;3.00;;
36241;SDS011;22283;42.748;12.732;2023-11-19T17:14:50;8.17;;;3.10;;
36241;SDS011;22283;42.748;12.732;2023-11-19T17:19:53;8.35;;;3.08;;
36241;SDS011;22283;42.748;12.732;2023-11-19T17:24:53;11.77;;;2.53;;
36241;SDS011;22283;42.748;12.732;2023-11-19T17:29:55;12.57;;;2.50;;
36241;SDS011;22283;42.748;12.732;2023-11-19T17:34:56;6.57;;;2.55;;
36241;SDS011;22283;42.748;12.732;2023-11-19T17:39:57;6.67;;;2.67;;
36241;SDS011;22283;42.748;12.732;2023-11-19T17:44:58;10.13;;;2.50;;
36241;SDS011;22283;42.748;12.732;2023-11-19T17:49:59;9.45;;;3.28;;
36241;SDS011;22283;42.748;12.732;2023-11-19T17:55:03;7.97;;;3.05;;
36241;SDS011;22283;42.748;12.732;2023-11-19T18:00:06;11.85;;;4.60;;
36241;SDS011;22283;42.748;12.732;2023-11-19T18:05:12;11.35;;;4.40;;
36241;SDS011;22283;42.748;12.732;2023-11-19T18:10:12;8.85;;;3.53;;
36241;SDS011;22283;42.748;12.732;2023-11-19T18:15:14;11.50;;;3.30;;
36241;SDS011;22283;42.748;12.732;2023-11-19T18:20:15;11.35;;;3.58;;
36241;SDS011;22283;42.748;12.732;2023-11-19T18:25:16;11.68;;;3.47;;
36241;SDS011;22283;42.748;12.732;2023-11-19T18:30:17;6.85;;;3.10;;
36241;SDS011;22283;42.748;12.732;2023-11-19T18:35:18;11.33;;;3.60;;
36241;SDS011;22283;42.748;12.732;2023-11-19T18:40:23;8.95;;;3.58;;
36241;SDS011;22283;42.748;12.732;2023-11-19T18:45:24;17.58;;;4.38;;
36241;SDS011;22283;42.748;12.732;2023-11-19T18:50:27;8.82;;;2.88;;
36241;SDS011;22283;42.748;12.732;2023-11-19T18:55:28;10.48;;;3.83;;
36241;SDS011;22283;42.748;12.732;2023-11-19T19:00:29;10.07;;;3.90;;
36241;SDS011;22283;42.748;12.732;2023-11-19T19:05:30;13.57;;;3.47;;
36241;SDS011;22283;42.748;12.732;2023-11-19T19:10:30;7.00;;;3.37;;
36241;SDS011;22283;42.748;12.732;2023-11-19T19:15:31;15.57;;;3.27;;
36241;SDS011;22283;42.748;12.732;2023-11-19T19:20:32;7.32;;;2.88;;
36241;SDS011;22283;42.748;12.732;2023-11-19T19:30:34;10.70;;;3.72;;
36241;SDS011;22283;42.748;12.732;2023-11-19T19:35:35;10.77;;;4.05;;
36241;SDS011;22283;42.748;12.732;2023-11-19T19:40:36;8.30;;;3.00;;
36241;SDS011;22283;42.748;12.732;2023-11-19T19:45:37;9.43;;;2.97;;
36241;SDS011;22283;42.748;12.732;2023-11-19T19:50:38;8.70;;;2.83;;
36241;SDS011;22283;42.748;12.732;2023-11-19T19:55:38;11.33;;;3.00;;
36241;SDS011;22283;42.748;12.732;2023-11-19T20:00:39;10.70;;;3.00;;
36241;SDS011;22283;42.748;12.732;2023-11-19T20:05:39;7.73;;;2.87;;
36241;SDS011;22283;42.748;12.732;2023-11-19T20:15:42;9.25;;;2.50;;
36241;SDS011;22283;42.748;12.732;2023-11-19T20:20:42;13.63;;;2.72;;
36241;SDS011;22283;42.748;12.732;2023-11-19T20:25:43;3.53;;;1.63;;
36241;SDS011;22283;42.748;12.732;2023-11-19T20:30:44;9.67;;;2.90;;
36241;SDS011;22283;42.748;12.732;2023-11-19T20:35:44;13.43;;;2.63;;
36241;SDS011;22283;42.748;12.732;2023-11-19T20:40:46;7.63;;;3.10;;
36241;SDS011;22283;42.748;12.732;2023-11-19T20:45:46;7.13;;;3.40;;
36241;SDS011;22283;42.748;12.732;2023-11-19T20:50:47;10.33;;;2.53;;
36241;SDS011;22283;42.748;12.732;2023-11-19T20:55:48;10.03;;;2.73;;
36241;SDS011;22283;42.748;12.732;2023-11-19T21:00:49;7.63;;;2.30;;
36241;SDS011;22283;42.748;12.732;2023-11-19T21:05:50;12.15;;;2.50;;
36241;SDS011;22283;42.748;12.732;2023-11-19T21:10:54;6.47;;;2.55;;
36241;SDS011;22283;42.748;12.732;2023-11-19T21:15:55;11.67;;;4.20;;
36241;SDS011;22283;42.748;12.732;2023-11-19T21:21:01;7.72;;;3.38;;
36241;SDS011;22283;42.748;12.732;2023-11-19T21:26:02;7.82;;;2.72;;
36241;SDS011;22283;42.748;12.732;2023-11-19T21:31:04;8.10;;;2.53;;
36241;SDS011;22283;42.748;12.732;2023-11-19T21:36:04;10.43;;;2.90;;
36241;SDS011;22283;42.748;12.732;2023-11-19T21:41:06;8.88;;;3.03;;
36241;SDS011;22283;42.748;12.732;2023-11-19T21:46:07;10.98;;;3.13;;
36241;SDS011;22283;42.748;12.732;2023-11-19T21:51:07;5.97;;;2.27;;
36241;SDS011;22283;42.748;12.732;2023-11-19T21:56:08;10.48;;;2.85;;
36241;SDS011;22283;42.748;12.732;2023-11-19T22:01:09;11.67;;;2.93;;
36241;SDS011;22283;42.748;12.732;2023-11-19T22:06:15;9.80;;;3.13;;
36241;SDS011;22283;42.748;12.732;2023-11-19T22:11:17;11.50;;;2.85;;
36241;SDS011;22283;42.748;12.732;2023-11-19T22:16:17;9.13;;;4.30;;
36241;SDS011;22283;42.748;12.732;2023-11-19T22:21:18;8.93;;;3.80;;
36241;SDS011;22283;42.748;12.732;2023-11-19T22:26:19;7.57;;;4.27;;
36241;SDS011;22283;42.748;12.732;2023-11-19T22:31:19;6.87;;;3.07;;
36241;SDS011;22283;42.748;12.732;2023-11-19T22:36:20;7.13;;;3.40;;
36241;SDS011;22283;42.748;12.732;2023-11-19T22:41:23;11.98;;;2.70;;
36241;SDS011;22283;42.748;12.732;2023-11-19T22:46:23;15.97;;;3.23;;
36241;SDS011;22283;42.748;12.732;2023-11-19T22:51:24;9.47;;;3.23;;
36241;SDS011;22283;42.748;12.732;2023-11-19T22:56:25;9.87;;;3.57;;
36241;SDS011;22283;42.748;12.732;2023-11-19T23:01:25;11.27;;;3.37;;
36241;SDS011;22283;42.748;12.732;2023-11-19T23:06:26;10.53;;;2.67;;
36241;SDS011;22283;42.748;12.732;2023-11-19T23:11:27;12.43;;;3.90;;
36241;SDS011;22283;42.748;12.732;2023-11-19T23:16:27;8.07;;;2.67;;
36241;SDS011;22283;42.748;12.732;2023-11-19T23:21:28;9.63;;;2.43;;
36241;SDS011;22283;42.748;12.732;2023-11-19T23:26:28;11.63;;;2.87;;
36241;SDS011;22283;42.748;12.732;2023-11-19T23:31:30;6.53;;;2.60;;
36241;SDS011;22283;42.748;12.732;2023-11-19T23:41:31;10.23;;;3.10;;
36241;SDS011;22283;42.748;12.732;2023-11-19T23:46:32;10.20;;;3.03;;
36241;SDS011;22283;42.748;12.732;2023-11-19T23:51:36;7.97;;;2.50;;
36241;SDS011;22283;42.748;12.732;2023-11-19T23:56:38;12.60;;;2.88;;
